createdAt,value
2023-05-04T00:02:02.350Z,8.30
2023-05-04T00:07:07.275Z,5.82
2023-05-04T00:17:14.264Z,8.75
2023-05-04T00:22:19.142Z,6.07
2023-05-04T00:32:25.916Z,9.05
2023-05-04T00:37:30.830Z,5.32
2023-05-04T00:47:37.791Z,9.90
2023-05-04T00:52:45.209Z,7.07
2023-05-04T00:57:50.493Z,5.07
2023-05-04T01:02:54.115Z,5.80
2023-05-04T01:08:03.449Z,6.97
2023-05-04T01:13:11.111Z,8.15
2023-05-04T01:18:14.775Z,7.35
2023-05-04T01:23:19.724Z,5.03
2023-05-04T01:33:33.421Z,6.97
2023-05-04T01:43:41.770Z,5.05
2023-05-04T01:48:45.199Z,7.80
2023-05-04T01:53:50.110Z,7.20
2023-05-04T02:03:56.873Z,11.90
2023-05-04T02:09:01.921Z,6.82
2023-05-04T02:14:05.608Z,6.15
2023-05-04T02:19:09.200Z,4.43
2023-05-04T02:24:14.410Z,10.05
2023-05-04T02:29:17.988Z,8.57
2023-05-04T02:34:21.708Z,7.40
2023-05-04T02:39:26.693Z,11.75
2023-05-04T02:49:33.340Z,4.63
2023-05-04T02:54:39.298Z,9.68
2023-05-04T02:59:42.787Z,5.72
2023-05-04T03:04:46.268Z,7.78
2023-05-04T03:09:51.240Z,9.98
2023-05-04T03:19:57.902Z,8.07
2023-05-04T03:25:02.884Z,6.40
2023-05-04T03:30:08.816Z,5.05
2023-05-04T03:35:12.943Z,3.45
2023-05-04T03:40:22.479Z,4.97
2023-05-04T03:45:28.587Z,5.32
2023-05-04T03:50:32.141Z,6.53
2023-05-04T03:55:37.320Z,4.10
2023-05-04T04:00:40.942Z,7.20
2023-05-04T04:05:44.425Z,4.97
2023-05-04T04:10:49.290Z,2.70
2023-05-04T04:15:52.861Z,2.95
2023-05-04T04:20:56.481Z,2.80
2023-05-04T04:26:01.885Z,3.37
2023-05-04T04:31:05.783Z,2.78
2023-05-04T04:36:10.631Z,4.65
2023-05-04T04:41:15.969Z,3.22
2023-05-04T04:46:19.498Z,2.83
2023-05-04T04:51:23.173Z,3.45
2023-05-04T04:56:28.204Z,2.67
2023-05-04T05:01:31.805Z,4.65
2023-05-04T05:06:35.478Z,2.30
2023-05-04T05:11:40.406Z,4.40
2023-05-04T05:16:43.915Z,4.18
2023-05-04T05:21:48.003Z,3.05
2023-05-04T05:26:53.787Z,2.78
2023-05-04T05:31:57.459Z,2.83
2023-05-04T05:37:01.137Z,2.78
2023-05-04T05:42:06.765Z,3.40
2023-05-04T05:47:10.238Z,2.15
2023-05-04T05:52:13.723Z,2.45
2023-05-04T05:57:18.597Z,2.00
2023-05-04T06:02:22.208Z,2.35
2023-05-04T06:07:26.191Z,3.78
2023-05-04T06:12:31.289Z,2.17
2023-05-04T06:17:35.036Z,2.53
2023-05-04T06:22:38.582Z,1.60
2023-05-04T06:27:43.504Z,3.70
2023-05-04T06:32:47.218Z,2.58
2023-05-04T06:43:01.173Z,2.13
2023-05-04T06:48:05.524Z,1.88
2023-05-04T06:53:10.369Z,2.63
2023-05-04T06:58:15.393Z,3.88
2023-05-04T07:03:19.060Z,3.55
2023-05-04T07:08:22.575Z,2.78
2023-05-04T07:13:27.543Z,2.63
2023-05-04T07:18:31.441Z,2.22
2023-05-04T07:23:34.921Z,3.80
2023-05-04T07:28:43.954Z,3.95
2023-05-04T07:33:47.557Z,2.97
2023-05-04T07:38:51.517Z,3.47
2023-05-04T07:43:56.628Z,2.15
2023-05-04T07:49:00.091Z,2.17
2023-05-04T07:54:03.546Z,2.00
2023-05-04T07:59:08.443Z,2.13
2023-05-04T08:04:12.022Z,2.42
2023-05-04T08:09:15.512Z,3.25
2023-05-04T08:14:20.409Z,2.35
2023-05-04T08:19:23.911Z,2.10
2023-05-04T08:24:27.416Z,2.17
2023-05-04T08:29:32.326Z,2.53
2023-05-04T08:34:36.681Z,2.75
2023-05-04T08:39:42.081Z,2.75
2023-05-04T08:44:47.276Z,2.15
2023-05-04T08:49:50.980Z,2.92
2023-05-04T08:54:56.062Z,2.00
2023-05-04T09:00:02.011Z,3.70
2023-05-04T09:05:09.557Z,1.70
2023-05-04T09:10:13.251Z,3.33
2023-05-04T09:15:19.262Z,3.25
2023-05-04T09:20:22.981Z,2.88
2023-05-04T09:25:26.513Z,2.10
2023-05-04T09:30:32.075Z,1.80
2023-05-04T09:35:35.533Z,3.00
2023-05-04T09:40:41.549Z,2.77
2023-05-04T09:45:48.345Z,3.38
2023-05-04T09:50:56.263Z,1.90
2023-05-04T09:56:11.445Z,1.77
2023-05-04T10:01:17.106Z,1.45
2023-05-04T10:06:22.600Z,2.38
2023-05-04T10:11:27.513Z,3.15
2023-05-04T10:16:45.748Z,2.15
2023-05-04T10:22:02.985Z,3.28
2023-05-04T10:27:11.555Z,2.28
2023-05-04T10:32:23.758Z,2.55
2023-05-04T10:37:27.414Z,3.10
2023-05-04T10:42:42.010Z,1.80
2023-05-04T10:53:16.955Z,3.08
2023-05-04T10:58:29.820Z,2.45
2023-05-04T11:03:42.241Z,3.45
2023-05-04T11:08:48.245Z,1.85
2023-05-04T11:13:52.006Z,2.05
2023-05-04T11:18:56.899Z,1.37
2023-05-04T11:24:02.636Z,1.98
2023-05-04T11:29:14.124Z,3.03
2023-05-04T11:34:22.356Z,1.77
2023-05-04T11:39:27.400Z,1.58
2023-05-04T11:44:31.471Z,1.85
2023-05-04T11:49:36.567Z,1.50
2023-05-04T11:54:40.138Z,2.58
2023-05-04T11:59:50.287Z,2.08
2023-05-04T12:04:55.641Z,1.90
2023-05-04T12:09:59.105Z,2.15
2023-05-04T12:15:02.559Z,5.25
2023-05-04T12:20:10.368Z,2.00
2023-05-04T12:25:13.993Z,1.80
2023-05-04T12:30:18.123Z,1.60
2023-05-04T12:35:23.233Z,4.10
2023-05-04T12:40:28.753Z,1.80
2023-05-04T12:45:32.580Z,1.95
2023-05-04T12:50:37.649Z,2.13
2023-05-04T12:55:41.379Z,2.63
2023-05-04T13:00:46.118Z,2.00
2023-05-04T13:05:51.414Z,1.60
2023-05-04T13:10:55.166Z,2.30
2023-05-04T13:15:59.052Z,3.33
2023-05-04T13:21:04.226Z,3.22
2023-05-04T13:26:07.736Z,1.90
2023-05-04T13:31:11.487Z,1.93
2023-05-04T13:36:17.286Z,2.50
2023-05-04T13:41:20.810Z,3.33
2023-05-04T13:46:24.436Z,2.07
2023-05-04T13:51:29.378Z,1.90
2023-05-04T13:56:32.890Z,1.60
2023-05-04T14:01:36.421Z,2.70
2023-05-04T14:06:41.320Z,2.87
2023-05-04T14:11:45.017Z,3.75
2023-05-04T14:16:48.532Z,1.80
2023-05-04T14:21:53.518Z,4.10
2023-05-04T14:26:57.102Z,1.30
2023-05-04T14:32:00.679Z,1.70
2023-05-04T14:37:05.654Z,6.63
2023-05-04T14:42:09.460Z,1.80
2023-05-04T14:47:13.223Z,4.97
2023-05-04T14:52:18.415Z,2.80
2023-05-04T14:57:21.890Z,1.40
2023-05-04T15:02:25.545Z,2.20
2023-05-04T15:07:30.514Z,2.30
2023-05-04T15:12:34.090Z,1.90
2023-05-04T15:17:37.666Z,2.70
2023-05-04T15:22:42.891Z,2.07
2023-05-04T15:27:46.494Z,1.98
2023-05-04T15:32:49.975Z,3.38
2023-05-04T15:37:54.927Z,2.67
2023-05-04T15:42:58.498Z,2.20
2023-05-04T15:48:02.076Z,2.20
2023-05-04T15:53:07.055Z,2.00
2023-05-04T15:58:10.769Z,2.72
2023-05-04T16:03:15.424Z,1.92
2023-05-04T16:08:20.392Z,2.10
2023-05-04T16:13:23.970Z,3.58
2023-05-04T16:18:27.536Z,3.17
2023-05-04T16:23:32.496Z,3.55
2023-05-04T16:28:36.948Z,2.83
2023-05-04T16:33:41.520Z,2.30
2023-05-04T16:43:50.261Z,4.78
2023-05-04T16:48:54.747Z,3.07
2023-05-04T16:59:02.862Z,5.03
2023-05-04T17:04:06.430Z,2.67
2023-05-04T17:09:11.359Z,3.60
2023-05-04T17:14:14.979Z,3.22
2023-05-04T17:19:18.451Z,3.55
2023-05-04T17:24:23.313Z,3.15
2023-05-04T17:29:26.858Z,5.80
2023-05-04T17:34:30.302Z,3.60
2023-05-04T17:39:35.249Z,2.13
2023-05-04T17:44:38.745Z,2.97
2023-05-04T17:49:42.193Z,3.13
2023-05-04T17:54:47.126Z,4.00
2023-05-04T17:59:50.648Z,3.35
2023-05-04T18:04:54.108Z,4.53
2023-05-04T18:09:59.028Z,2.67
2023-05-04T18:15:02.583Z,6.60
2023-05-04T18:20:10.334Z,3.67
2023-05-04T18:25:16.370Z,11.07
2023-05-04T18:30:20.206Z,10.32
2023-05-04T18:35:23.718Z,7.45
2023-05-04T18:40:28.594Z,10.70
2023-05-04T18:45:32.183Z,4.80
2023-05-04T18:50:36.200Z,7.03
2023-05-04T18:55:41.108Z,5.00
2023-05-04T19:00:46.474Z,7.68
2023-05-04T19:05:50.066Z,8.20
2023-05-04T19:10:59.241Z,5.97
2023-05-04T19:16:02.806Z,5.10
2023-05-04T19:21:06.920Z,6.13
2023-05-04T19:26:11.794Z,3.97
2023-05-04T19:31:15.755Z,7.13
2023-05-04T19:36:19.274Z,6.50
2023-05-04T19:41:24.178Z,4.78
2023-05-04T19:51:31.578Z,6.90
2023-05-04T19:56:36.547Z,5.80
2023-05-04T20:01:39.997Z,7.18
2023-05-04T20:06:43.440Z,9.65
2023-05-04T20:11:48.480Z,5.45
2023-05-04T20:16:52.728Z,6.18
2023-05-04T20:21:56.515Z,3.40
2023-05-04T20:27:01.467Z,5.03
2023-05-04T20:32:05.832Z,7.65
2023-05-04T20:37:09.625Z,7.75
2023-05-04T20:42:14.689Z,5.20
2023-05-04T20:47:18.631Z,10.60
2023-05-04T20:52:22.272Z,8.10
2023-05-04T20:57:27.261Z,7.80
2023-05-04T21:02:31.349Z,6.20
2023-05-04T21:07:34.934Z,2.92
2023-05-04T21:12:39.880Z,4.57
2023-05-04T21:17:43.396Z,4.65
2023-05-04T21:22:46.966Z,4.85
2023-05-04T21:27:51.962Z,4.30
2023-05-04T21:32:55.491Z,9.07
2023-05-04T21:37:59.870Z,7.97
2023-05-04T21:43:04.726Z,5.47
2023-05-04T21:48:08.448Z,4.75
2023-05-04T21:53:11.956Z,7.68
2023-05-04T21:58:17.384Z,5.50
2023-05-04T22:03:21.122Z,6.38
2023-05-04T22:08:24.836Z,8.07
2023-05-04T22:13:29.948Z,8.18
2023-05-04T22:18:33.441Z,6.90
2023-05-04T22:23:37.312Z,8.20
2023-05-04T22:28:42.179Z,8.73
2023-05-04T22:38:48.679Z,8.00
2023-05-04T22:43:53.488Z,8.63
2023-05-04T22:48:56.956Z,5.15
2023-05-04T22:54:00.368Z,8.50
2023-05-04T22:59:06.411Z,9.00
2023-05-04T23:04:12.767Z,9.68
2023-05-04T23:09:16.634Z,6.75
2023-05-04T23:14:21.851Z,11.05
2023-05-04T23:19:25.305Z,10.25
2023-05-04T23:24:28.774Z,8.57
2023-05-04T23:29:33.700Z,12.13
2023-05-04T23:39:40.294Z,7.22
2023-05-04T23:44:45.101Z,6.85
2023-05-04T23:49:48.608Z,8.15
2023-05-04T23:54:54.723Z,6.95
2023-05-04T23:59:59.505Z,8.45
